createdAt,value
2017-04-30T00:00:26.788Z,8.98
2017-04-30T00:02:55.775Z,7.90
2017-04-30T00:05:24.994Z,8.57
2017-04-30T00:07:53.870Z,8.02
2017-04-30T00:10:22.737Z,9.62
2017-04-30T00:12:52.373Z,8.27
2017-04-30T00:15:21.253Z,9.30
2017-04-30T00:17:50.484Z,7.70
2017-04-30T00:20:19.358Z,9.80
2017-04-30T00:22:48.234Z,9.77
2017-04-30T00:25:17.393Z,8.83
2017-04-30T00:27:46.269Z,8.78
2017-04-30T00:30:15.143Z,8.70
2017-04-30T00:32:44.060Z,10.57
2017-04-30T00:35:13.024Z,9.73
2017-04-30T00:37:41.894Z,8.30
2017-04-30T00:40:10.802Z,9.75
2017-04-30T00:42:39.681Z,13.12
2017-04-30T00:45:08.556Z,10.92
2017-04-30T00:47:37.677Z,9.67
2017-04-30T00:50:06.553Z,10.92
2017-04-30T00:52:35.428Z,9.13
2017-04-30T00:55:04.544Z,8.88
2017-04-30T00:57:33.425Z,9.78
2017-04-30T01:00:02.296Z,9.27
2017-04-30T01:02:31.523Z,9.50
2017-04-30T01:05:00.408Z,12.15
2017-04-30T01:07:29.287Z,9.05
2017-04-30T01:09:58.290Z,9.48
2017-04-30T01:12:27.171Z,13.60
2017-04-30T01:14:56.046Z,10.72
2017-04-30T01:17:25.689Z,11.65
2017-04-30T01:19:54.574Z,10.43
2017-04-30T01:22:23.493Z,9.75
2017-04-30T01:24:52.361Z,9.15
2017-04-30T01:27:21.229Z,9.70
2017-04-30T01:29:50.142Z,9.00
2017-04-30T01:32:19.016Z,10.02
2017-04-30T01:34:47.906Z,11.98
2017-04-30T01:37:16.825Z,11.33
2017-04-30T01:39:45.705Z,11.62
2017-04-30T01:42:14.580Z,10.28
2017-04-30T01:44:43.752Z,10.80
2017-04-30T01:47:13.369Z,10.92
2017-04-30T01:49:42.246Z,10.77
2017-04-30T01:52:11.917Z,10.62
2017-04-30T01:54:40.794Z,10.85
2017-04-30T01:57:09.671Z,12.45
2017-04-30T01:59:38.581Z,10.90
2017-04-30T02:02:07.474Z,9.77
2017-04-30T02:04:36.364Z,10.13
2017-04-30T02:07:05.267Z,9.40
2017-04-30T02:09:34.140Z,9.57
2017-04-30T02:12:03.008Z,10.08
2017-04-30T02:14:31.927Z,8.10
2017-04-30T02:17:00.801Z,9.55
2017-04-30T02:19:29.677Z,9.32
2017-04-30T02:21:59.089Z,10.12
2017-04-30T02:24:27.964Z,7.78
2017-04-30T02:26:56.839Z,8.42
2017-04-30T02:29:26.490Z,8.95
2017-04-30T02:31:55.357Z,8.90
2017-04-30T02:34:24.235Z,8.53
2017-04-30T02:36:53.878Z,8.90
2017-04-30T02:39:22.755Z,9.03
2017-04-30T02:41:51.685Z,11.38
2017-04-30T02:44:20.557Z,8.62
2017-04-30T02:46:49.432Z,8.75
2017-04-30T02:49:18.350Z,8.80
2017-04-30T02:51:47.226Z,9.75
2017-04-30T02:54:16.106Z,7.80
2017-04-30T02:56:45.068Z,8.05
2017-04-30T02:59:14.689Z,8.37
2017-04-30T03:01:43.556Z,9.50
2017-04-30T03:04:13.209Z,9.22
2017-04-30T03:06:42.077Z,6.95
2017-04-30T03:09:10.958Z,9.05
2017-04-30T03:11:40.608Z,8.45
2017-04-30T03:14:09.484Z,9.35
2017-04-30T03:16:38.358Z,9.50
2017-04-30T03:19:07.268Z,10.18
2017-04-30T03:21:36.146Z,9.83
2017-04-30T03:24:05.025Z,15.57
2017-04-30T03:26:34.029Z,8.75
2017-04-30T03:29:02.907Z,9.02
2017-04-30T03:31:31.794Z,9.60
2017-04-30T03:34:00.704Z,9.25
2017-04-30T03:36:29.577Z,9.05
2017-04-30T03:39:10.440Z,12.02
2017-04-30T03:41:51.813Z,7.98
2017-04-30T03:44:33.220Z,9.63
2017-04-30T03:47:13.873Z,8.92
2017-04-30T03:49:55.357Z,8.98
2017-04-30T03:52:36.862Z,9.03
2017-04-30T03:55:17.794Z,8.67
2017-04-30T03:57:58.394Z,9.52
2017-04-30T04:00:39.048Z,8.43
2017-04-30T04:03:20.882Z,9.72
2017-04-30T04:06:01.405Z,8.42
2017-04-30T04:08:43.134Z,10.28
2017-04-30T04:11:23.689Z,8.48
2017-04-30T04:14:04.605Z,9.05
2017-04-30T04:16:45.345Z,9.28
2017-04-30T04:19:26.164Z,8.38
2017-04-30T04:22:07.556Z,10.87
2017-04-30T04:24:49.126Z,9.10
2017-04-30T04:27:29.918Z,8.27
2017-04-30T04:30:11.412Z,9.67
2017-04-30T04:32:52.023Z,8.95
2017-04-30T04:35:32.917Z,9.38
2017-04-30T04:38:13.681Z,9.13
2017-04-30T04:40:54.529Z,8.60
2017-04-30T04:43:35.362Z,8.12
2017-04-30T04:46:16.247Z,9.33
2017-04-30T04:48:57.073Z,8.35
2017-04-30T04:51:38.217Z,8.42
2017-04-30T04:54:19.012Z,9.02
2017-04-30T04:56:59.642Z,9.10
2017-04-30T04:59:40.344Z,9.47
2017-04-30T05:02:21.066Z,10.40
2017-04-30T05:05:01.744Z,7.77
2017-04-30T05:07:42.667Z,9.12
2017-04-30T05:10:24.125Z,8.32
2017-04-30T05:13:04.982Z,6.72
2017-04-30T05:15:45.814Z,8.38
2017-04-30T05:18:27.114Z,9.12
2017-04-30T05:21:07.745Z,7.32
2017-04-30T05:23:49.354Z,7.42
2017-04-30T05:26:30.194Z,7.13
2017-04-30T05:29:11.078Z,5.92
2017-04-30T05:31:52.536Z,6.85
2017-04-30T05:34:33.222Z,8.10
2017-04-30T05:37:13.850Z,8.60
2017-04-30T05:39:54.724Z,6.78
2017-04-30T05:42:35.382Z,7.50
2017-04-30T05:45:16.089Z,7.35
2017-04-30T05:47:56.812Z,7.52
2017-04-30T05:50:37.807Z,7.70
2017-04-30T05:53:18.577Z,8.10
2017-04-30T05:55:59.446Z,8.17
2017-04-30T05:58:40.191Z,7.72
2017-04-30T06:01:21.376Z,8.13
2017-04-30T06:04:02.068Z,8.30
2017-04-30T06:06:43.231Z,7.23
2017-04-30T06:09:24.056Z,7.23
2017-04-30T06:12:05.581Z,7.68
2017-04-30T06:14:46.357Z,9.12
2017-04-30T06:17:26.930Z,7.33
2017-04-30T06:20:07.905Z,7.58
2017-04-30T06:22:48.864Z,7.37
2017-04-30T06:25:29.750Z,6.93
2017-04-30T06:28:10.572Z,7.62
2017-04-30T06:30:52.168Z,7.92
2017-04-30T06:33:32.912Z,6.23
2017-04-30T06:36:14.632Z,7.40
2017-04-30T06:38:55.465Z,6.48
2017-04-30T06:41:36.328Z,8.58
2017-04-30T06:44:16.970Z,6.93
2017-04-30T06:46:57.557Z,6.95
2017-04-30T06:49:38.332Z,9.53
2017-04-30T06:52:18.982Z,7.57
2017-04-30T06:54:59.810Z,7.93
2017-04-30T06:57:40.392Z,7.77
2017-04-30T07:00:21.119Z,13.02
2017-04-30T07:03:02.708Z,7.42
2017-04-30T07:05:44.577Z,8.25
2017-04-30T07:08:25.089Z,7.40
2017-04-30T07:11:05.721Z,7.44
2017-04-30T07:13:47.202Z,7.62
2017-04-30T07:16:27.877Z,9.00
2017-04-30T07:19:09.309Z,9.57
2017-04-30T07:21:50.157Z,8.12
2017-04-30T07:24:30.899Z,7.88
2017-04-30T07:27:11.798Z,9.20
2017-04-30T07:29:52.605Z,9.62
2017-04-30T07:32:33.324Z,8.37
2017-04-30T07:35:14.856Z,8.23
2017-04-30T07:37:55.581Z,8.75
2017-04-30T07:40:36.952Z,8.32
2017-04-30T07:43:05.862Z,10.24
2017-04-30T07:45:34.745Z,9.85
2017-04-30T07:48:03.657Z,8.10
2017-04-30T07:50:32.558Z,9.32
2017-04-30T07:53:01.438Z,8.98
2017-04-30T07:55:30.465Z,9.10
2017-04-30T07:57:59.349Z,9.78
2017-04-30T08:00:28.245Z,12.54
2017-04-30T08:02:57.268Z,10.68
2017-04-30T08:05:26.906Z,10.74
2017-04-30T08:07:55.801Z,12.90
2017-04-30T08:10:24.819Z,10.75
2017-04-30T08:12:53.696Z,10.46
2017-04-30T08:15:22.586Z,10.54
2017-04-30T08:17:51.512Z,9.74
2017-04-30T08:20:20.389Z,8.40
2017-04-30T08:22:49.325Z,13.00
2017-04-30T08:25:18.289Z,10.24
2017-04-30T08:27:47.176Z,9.50
2017-04-30T08:30:16.098Z,10.36
2017-04-30T08:32:45.729Z,9.76
2017-04-30T08:35:14.608Z,9.50
2017-04-30T08:37:44.369Z,11.58
2017-04-30T08:40:13.989Z,8.90
2017-04-30T08:42:42.874Z,10.44
2017-04-30T08:45:12.062Z,10.02
2017-04-30T08:47:40.942Z,8.70
2017-04-30T08:50:09.849Z,9.82
2017-04-30T08:52:39.033Z,12.04
2017-04-30T08:55:07.913Z,10.92
2017-04-30T08:57:36.797Z,10.06
2017-04-30T09:00:05.712Z,8.94
2017-04-30T09:02:34.594Z,11.42
2017-04-30T09:05:03.473Z,8.80
2017-04-30T09:07:32.393Z,10.02
2017-04-30T09:10:01.277Z,10.18
2017-04-30T09:12:30.164Z,10.90
2017-04-30T09:14:59.072Z,9.66
2017-04-30T09:17:27.964Z,11.18
2017-04-30T09:19:56.841Z,10.10
2017-04-30T09:22:26.027Z,11.46
2017-04-30T09:24:54.905Z,10.56
2017-04-30T09:27:23.785Z,9.72
2017-04-30T09:29:52.697Z,9.46
2017-04-30T09:32:21.578Z,10.60
2017-04-30T09:34:50.465Z,11.30
2017-04-30T09:37:19.401Z,10.60
2017-04-30T09:39:48.281Z,10.20
2017-04-30T09:42:17.164Z,10.16
2017-04-30T09:44:46.094Z,11.46
2017-04-30T09:47:15.717Z,10.06
2017-04-30T09:49:45.336Z,10.80
2017-04-30T09:52:14.552Z,9.70
2017-04-30T09:54:43.432Z,10.16
2017-04-30T09:57:12.313Z,9.64
2017-04-30T09:59:41.529Z,9.28
2017-04-30T10:02:10.435Z,10.84
2017-04-30T10:04:39.310Z,10.50
2017-04-30T10:07:08.224Z,8.78
2017-04-30T10:09:37.099Z,8.46
2017-04-30T10:12:05.979Z,9.18
2017-04-30T10:14:35.022Z,10.18
2017-04-30T10:17:03.913Z,11.86
2017-04-30T10:19:32.793Z,8.90
2017-04-30T10:22:01.706Z,9.52
2017-04-30T10:24:31.323Z,9.54
2017-04-30T10:27:00.935Z,8.86
2017-04-30T10:29:30.602Z,11.12
2017-04-30T10:31:59.473Z,8.64
2017-04-30T10:34:29.090Z,9.52
2017-04-30T10:36:58.012Z,10.06
2017-04-30T10:39:26.895Z,8.58
2017-04-30T10:41:55.765Z,8.10
2017-04-30T10:44:24.676Z,7.40
2017-04-30T10:46:53.554Z,8.18
2017-04-30T10:49:22.425Z,7.78
2017-04-30T10:51:51.340Z,8.52
2017-04-30T10:54:20.208Z,7.44
2017-04-30T10:56:49.080Z,8.16
2017-04-30T10:59:17.996Z,7.82
2017-04-30T11:01:46.870Z,8.54
2017-04-30T11:04:15.743Z,6.06
2017-04-30T11:06:44.743Z,6.30
2017-04-30T11:09:13.615Z,6.10
2017-04-30T11:11:43.238Z,7.22
2017-04-30T11:14:12.548Z,7.46
2017-04-30T11:16:42.158Z,8.82
2017-04-30T11:19:11.029Z,6.88
2017-04-30T11:21:40.028Z,7.38
2017-04-30T11:24:08.902Z,9.64
2017-04-30T11:26:38.515Z,6.94
2017-04-30T11:29:07.637Z,6.80
2017-04-30T11:31:36.508Z,7.54
2017-04-30T11:34:05.381Z,6.60
2017-04-30T11:36:35.332Z,6.74
2017-04-30T11:39:04.206Z,8.42
2017-04-30T11:41:33.087Z,6.48
2017-04-30T11:44:03.028Z,7.36
2017-04-30T11:46:31.906Z,6.64
2017-04-30T11:49:00.784Z,7.24
2017-04-30T11:51:30.014Z,6.88
2017-04-30T11:53:58.890Z,7.42
2017-04-30T11:56:27.761Z,6.44
2017-04-30T11:58:57.709Z,7.68
2017-04-30T12:01:26.582Z,5.92
2017-04-30T12:03:55.466Z,6.70
2017-04-30T12:06:24.373Z,6.66
2017-04-30T12:08:53.245Z,6.70
2017-04-30T12:11:22.117Z,5.00
2017-04-30T12:13:51.756Z,5.60
2017-04-30T12:16:21.068Z,7.04
2017-04-30T12:18:49.945Z,5.88
2017-04-30T12:21:18.829Z,7.34
2017-04-30T12:23:47.738Z,6.60
2017-04-30T12:26:16.610Z,5.10
2017-04-30T12:28:45.489Z,5.34
2017-04-30T12:31:14.712Z,6.46
2017-04-30T12:33:43.591Z,5.94
2017-04-30T12:36:12.466Z,6.52
2017-04-30T12:38:42.211Z,6.24
2017-04-30T12:41:11.084Z,6.00
2017-04-30T12:43:39.953Z,7.52
2017-04-30T12:46:09.705Z,7.62
2017-04-30T12:48:38.586Z,7.78
2017-04-30T12:51:07.456Z,8.30
2017-04-30T12:53:36.370Z,6.54
2017-04-30T12:56:05.237Z,7.66
2017-04-30T12:58:34.120Z,7.76
2017-04-30T13:01:03.978Z,7.98
2017-04-30T13:03:32.856Z,8.98
2017-04-30T13:06:01.734Z,7.96
2017-04-30T13:08:30.640Z,8.70
2017-04-30T13:10:59.530Z,7.70
2017-04-30T13:13:28.394Z,7.58
2017-04-30T13:15:57.308Z,7.32
2017-04-30T13:18:26.183Z,7.70
2017-04-30T13:20:55.061Z,7.08
2017-04-30T13:23:24.713Z,7.32
2017-04-30T13:25:53.589Z,8.28
2017-04-30T13:28:22.466Z,7.40
2017-04-30T13:30:51.370Z,7.68
2017-04-30T13:33:20.243Z,7.44
2017-04-30T13:35:49.349Z,8.20
2017-04-30T13:38:18.225Z,7.88
2017-04-30T13:40:47.098Z,6.78
2017-04-30T13:43:16.846Z,7.88
2017-04-30T13:45:45.721Z,8.22
2017-04-30T13:48:14.594Z,7.62
2017-04-30T13:50:44.538Z,7.24
2017-04-30T13:53:13.424Z,8.30
2017-04-30T13:55:42.306Z,8.08
2017-04-30T13:58:11.209Z,6.98
2017-04-30T14:00:40.085Z,10.36
2017-04-30T14:03:08.971Z,8.68
2017-04-30T14:05:38.192Z,8.30
2017-04-30T14:08:07.064Z,7.30
2017-04-30T14:10:35.945Z,7.24
2017-04-30T14:13:05.595Z,7.46
2017-04-30T14:15:34.474Z,6.82
2017-04-30T14:18:03.348Z,6.16
2017-04-30T14:20:32.261Z,6.64
2017-04-30T14:23:01.132Z,7.16
2017-04-30T14:25:30.013Z,7.54
2017-04-30T14:27:59.230Z,7.62
2017-04-30T14:30:28.107Z,7.74
2017-04-30T14:32:56.986Z,7.22
2017-04-30T14:35:26.642Z,6.48
2017-04-30T14:37:55.517Z,7.00
2017-04-30T14:40:24.398Z,6.72
2017-04-30T14:42:53.325Z,6.44
2017-04-30T14:45:22.283Z,6.50
2017-04-30T14:47:51.151Z,7.50
2017-04-30T14:50:20.802Z,6.92
2017-04-30T14:52:49.676Z,6.98
2017-04-30T14:55:18.561Z,5.96
2017-04-30T14:57:47.473Z,6.88
2017-04-30T15:00:16.346Z,5.72
2017-04-30T15:02:45.242Z,7.50
2017-04-30T15:05:14.438Z,6.86
2017-04-30T15:07:43.310Z,7.32
2017-04-30T15:10:12.185Z,6.60
2017-04-30T15:12:41.105Z,6.82
2017-04-30T15:15:09.978Z,7.14
2017-04-30T15:17:38.852Z,6.28
2017-04-30T15:20:08.822Z,6.60
2017-04-30T15:22:37.667Z,7.56
2017-04-30T15:25:05.776Z,6.06
2017-04-30T15:27:34.903Z,7.58
2017-04-30T15:30:03.779Z,6.08
2017-04-30T15:32:32.651Z,7.22
2017-04-30T15:35:01.559Z,7.42
2017-04-30T15:37:30.436Z,7.42
2017-04-30T15:39:59.310Z,7.80
2017-04-30T15:42:28.221Z,6.98
2017-04-30T15:44:57.106Z,6.92
2017-04-30T15:47:25.979Z,6.72
2017-04-30T15:49:54.875Z,7.74
2017-04-30T15:52:23.747Z,5.56
2017-04-30T15:54:52.623Z,5.98
2017-04-30T15:57:22.282Z,6.40
2017-04-30T15:59:51.151Z,6.98
2017-04-30T16:02:20.020Z,5.88
2017-04-30T16:04:48.941Z,7.82
2017-04-30T16:07:17.823Z,6.14
2017-04-30T16:09:46.685Z,5.86
2017-04-30T16:12:16.629Z,9.80
2017-04-30T16:14:45.513Z,7.42
2017-04-30T16:17:14.388Z,6.86
2017-04-30T16:19:43.284Z,8.94
2017-04-30T16:22:12.157Z,6.96
2017-04-30T16:24:41.900Z,6.28
2017-04-30T16:27:10.772Z,6.94
2017-04-30T16:29:39.644Z,7.42
2017-04-30T16:32:09.292Z,7.52
2017-04-30T16:34:38.173Z,6.62
2017-04-30T16:37:07.048Z,7.00
2017-04-30T16:39:36.189Z,7.32
2017-04-30T16:42:05.058Z,5.78
2017-04-30T16:44:33.930Z,7.14
2017-04-30T16:47:02.821Z,7.24
2017-04-30T16:49:31.697Z,6.64
2017-04-30T16:52:01.644Z,6.04
2017-04-30T16:54:30.536Z,6.20
2017-04-30T16:56:59.410Z,5.78
2017-04-30T16:59:28.321Z,6.26
2017-04-30T17:01:57.197Z,5.78
2017-04-30T17:04:26.078Z,6.14
2017-04-30T17:06:55.196Z,5.90
2017-04-30T17:09:24.069Z,5.68
2017-04-30T17:11:52.944Z,6.32
2017-04-30T17:14:22.888Z,5.52
2017-04-30T17:16:51.757Z,5.38
2017-04-30T17:19:20.630Z,5.72
2017-04-30T17:21:50.285Z,6.78
2017-04-30T17:24:19.170Z,6.54
2017-04-30T17:26:48.044Z,6.64
2017-04-30T17:29:17.050Z,5.56
2017-04-30T17:31:45.925Z,7.88
2017-04-30T17:34:14.805Z,5.74
2017-04-30T17:36:44.752Z,7.02
2017-04-30T17:39:13.629Z,7.18
2017-04-30T17:41:42.504Z,6.54
2017-04-30T17:44:11.569Z,6.38
2017-04-30T17:46:40.448Z,5.56
2017-04-30T17:49:09.330Z,6.80
2017-04-30T17:51:38.245Z,7.44
2017-04-30T17:54:07.130Z,6.32
2017-04-30T17:56:36.005Z,6.80
2017-04-30T17:59:04.904Z,6.16
2017-04-30T18:01:33.804Z,6.42
2017-04-30T18:04:03.059Z,7.12
2017-04-30T18:06:31.943Z,4.88
2017-04-30T18:09:00.812Z,6.60
2017-04-30T18:11:29.729Z,7.84
2017-04-30T18:13:58.608Z,8.12
2017-04-30T18:16:27.492Z,8.58
2017-04-30T18:18:56.653Z,8.88
2017-04-30T18:21:25.530Z,8.48
2017-04-30T18:23:54.418Z,12.24
2017-04-30T18:26:23.345Z,12.86
2017-04-30T18:28:52.978Z,12.52
2017-04-30T18:31:21.856Z,11.56
2017-04-30T18:33:50.791Z,13.16
2017-04-30T18:36:19.674Z,10.10
2017-04-30T18:38:48.551Z,10.80
2017-04-30T18:41:17.502Z,10.90
2017-04-30T18:43:47.135Z,11.28
2017-04-30T18:46:16.017Z,11.46
2017-04-30T18:48:44.945Z,11.36
2017-04-30T18:51:13.833Z,11.92
2017-04-30T18:53:42.722Z,12.70
2017-04-30T18:56:11.825Z,10.52
2017-04-30T18:58:40.717Z,11.62
2017-04-30T19:01:09.610Z,11.42
2017-04-30T19:03:38.928Z,10.02
2017-04-30T19:06:07.814Z,10.38
2017-04-30T19:08:36.682Z,9.42
2017-04-30T19:11:05.597Z,10.52
2017-04-30T19:13:34.481Z,10.36
2017-04-30T19:16:03.363Z,11.06
2017-04-30T19:18:32.302Z,11.12
2017-04-30T19:21:01.933Z,11.54
2017-04-30T19:23:30.831Z,12.34
2017-04-30T19:25:59.840Z,13.18
2017-04-30T19:28:28.730Z,13.72
2017-04-30T19:30:57.617Z,14.34
2017-04-30T19:33:26.817Z,13.57
2017-04-30T19:35:55.716Z,13.02
2017-04-30T19:38:24.609Z,14.22
2017-04-30T19:40:53.544Z,14.68
2017-04-30T19:43:22.502Z,16.92
2017-04-30T19:45:51.401Z,14.47
2017-04-30T19:48:20.361Z,16.07
2017-04-30T19:50:49.269Z,16.70
2017-04-30T19:53:18.171Z,14.33
2017-04-30T19:55:47.092Z,14.40
2017-04-30T19:58:16.716Z,14.48
2017-04-30T20:00:45.604Z,13.30
2017-04-30T20:03:14.537Z,14.72
2017-04-30T20:05:43.421Z,13.36
2017-04-30T20:08:12.309Z,12.62
2017-04-30T20:10:41.232Z,12.36
2017-04-30T20:13:10.122Z,11.76
2017-04-30T20:15:39.008Z,12.54
2017-04-30T20:18:08.021Z,11.46
2017-04-30T20:20:37.648Z,12.06
2017-04-30T20:23:06.547Z,11.80
2017-04-30T20:25:35.472Z,12.38
2017-04-30T20:28:04.373Z,11.40
2017-04-30T20:30:33.259Z,12.76
2017-04-30T20:33:02.279Z,13.06
2017-04-30T20:35:31.165Z,12.14
2017-04-30T20:38:00.048Z,12.06
2017-04-30T20:40:28.979Z,11.04
2017-04-30T20:42:57.868Z,11.36
2017-04-30T20:45:27.499Z,11.34
2017-04-30T20:47:56.810Z,11.08
2017-04-30T20:50:25.694Z,10.50
2017-04-30T20:52:54.586Z,10.92
2017-04-30T20:55:23.780Z,11.52
2017-04-30T20:57:52.676Z,10.96
2017-04-30T21:00:21.591Z,10.80
2017-04-30T21:02:50.503Z,10.52
2017-04-30T21:05:19.388Z,9.90
2017-04-30T21:07:48.314Z,11.40
2017-04-30T21:10:17.192Z,10.38
2017-04-30T21:12:46.818Z,10.48
2017-04-30T21:15:15.736Z,11.16
2017-04-30T21:17:44.649Z,10.54
2017-04-30T21:20:13.532Z,12.00
2017-04-30T21:22:42.449Z,10.98
2017-04-30T21:25:11.331Z,11.46
2017-04-30T21:27:40.215Z,11.28
2017-04-30T21:30:09.137Z,12.06
2017-04-30T21:32:38.043Z,11.78
2017-04-30T21:35:06.925Z,12.22
2017-04-30T21:37:35.850Z,9.94
2017-04-30T21:40:04.734Z,11.14
2017-04-30T21:42:33.612Z,10.42
2017-04-30T21:45:02.625Z,11.14
2017-04-30T21:47:31.513Z,9.58
2017-04-30T21:50:00.393Z,10.70
2017-04-30T21:52:29.433Z,10.58
2017-04-30T21:54:58.314Z,10.30
2017-04-30T21:57:27.197Z,11.54
2017-04-30T21:59:56.121Z,10.94
2017-04-30T22:02:25.752Z,11.34
2017-04-30T22:04:54.640Z,13.02
2017-04-30T22:07:23.650Z,12.14
2017-04-30T22:09:52.533Z,12.74
2017-04-30T22:12:21.421Z,11.14
2017-04-30T22:14:50.341Z,11.54
2017-04-30T22:17:19.230Z,11.98
2017-04-30T22:19:48.118Z,11.58
2017-04-30T22:22:17.034Z,11.92
2017-04-30T22:24:45.917Z,11.40
2017-04-30T22:27:14.843Z,13.98
2017-04-30T22:29:44.472Z,12.92
2017-04-30T22:32:13.369Z,13.64
2017-04-30T22:34:42.281Z,14.62
2017-04-30T22:37:11.170Z,15.78
2017-04-30T22:39:40.056Z,14.92
2017-04-30T22:42:09.070Z,12.82
2017-04-30T22:44:37.960Z,14.52
2017-04-30T22:47:06.845Z,14.44
2017-04-30T22:49:35.765Z,14.64
2017-04-30T22:52:04.662Z,13.78
2017-04-30T22:54:34.290Z,15.46
2017-04-30T22:57:03.210Z,16.16
2017-04-30T22:59:32.098Z,15.58
2017-04-30T23:02:00.977Z,14.00
2017-04-30T23:04:29.900Z,13.84
2017-04-30T23:06:58.786Z,13.46
2017-04-30T23:09:27.686Z,14.54
2017-04-30T23:11:56.598Z,13.20
2017-04-30T23:14:25.490Z,14.80
2017-04-30T23:16:54.439Z,14.64
2017-04-30T23:19:23.353Z,12.78
2017-04-30T23:21:52.237Z,12.26
2017-04-30T23:24:21.129Z,11.82
2017-04-30T23:26:50.148Z,12.30
2017-04-30T23:29:19.024Z,14.82
2017-04-30T23:31:47.904Z,13.68
2017-04-30T23:34:16.821Z,16.52
2017-04-30T23:36:45.973Z,11.96
2017-04-30T23:39:14.862Z,12.62
2017-04-30T23:41:43.741Z,12.18
2017-04-30T23:44:12.756Z,11.72
2017-04-30T23:46:41.637Z,13.58
2017-04-30T23:49:10.522Z,13.30
2017-04-30T23:51:39.437Z,11.92
2017-04-30T23:54:08.392Z,13.04
2017-04-30T23:56:37.283Z,13.40
2017-04-30T23:59:06.197Z,14.22
